Time;durP1;ratioP1;P1;durP2;ratioP2;P2;SDS_P1;SDS_P2;PMS_P1;PMS_P2;Temp;Humidity;BMP_temperature;BMP_pressure;BME280_temperature;BME280_humidity;BME280_pressure;Samples;Min_cycle;Max_cycle;Signal;HPM_P1;HPM_P2
2023/08/05 11:00:59;;;;;;;8.50;6.20;;;;;;;21.33;100.00;98145.17;132406;1311;545698;-81
2023/08/05 11:04:01;;;;;;;9.40;5.00;;;;;;;21.43;100.00;98145.10;135985;1287;22506;-81
2023/08/05 11:07:04;;;;;;;6.20;4.80;;;;;;;21.54;100.00;98146.55;136420;1287;22568;-81
2023/08/05 11:10:06;;;;;;;6.10;4.90;;;;;;;21.47;100.00;98156.76;136005;1287;22588;-81
2023/08/05 11:13:09;;;;;;;7.70;4.70;;;;;;;21.31;100.00;98164.88;135724;1284;158292;-81
2023/08/05 11:16:11;;;;;;;6.00;5.30;;;;;;;21.14;100.00;98170.86;136508;1284;22293;-81
2023/08/05 11:19:15;;;;;;;8.20;4.80;;;;;;;21.03;100.00;98172.94;136399;1284;22280;-82
2023/08/05 11:22:17;;;;;;;11.10;7.10;;;;;;;20.93;100.00;98176.83;135942;1284;22643;-80
2023/08/05 11:25:19;;;;;;;32.60;17.20;;;;;;;20.99;100.00;98178.92;136195;1281;22559;-79
2023/08/05 11:28:22;;;;;;;14.40;9.90;;;;;;;21.04;100.00;98183.14;136504;1284;22710;-79
2023/08/05 11:31:25;;;;;;;11.30;8.60;;;;;;;20.90;100.00;98181.77;135973;1284;22571;-78
2023/08/05 11:34:27;;;;;;;9.90;8.90;;;;;;;20.80;100.00;98187.46;135961;1284;22587;-81
2023/08/05 11:37:29;;;;;;;10.30;7.70;;;;;;;20.78;100.00;98189.64;136680;1281;22293;-81
2023/08/05 11:40:32;;;;;;;10.10;8.10;;;;;;;20.76;100.00;98192.17;136366;1278;22458;-82
2023/08/05 11:46:11;;;;;;;20.10;11.10;;;;;;;20.68;100.00;98175.90;131323;1305;544797;-79
2023/08/05 11:49:14;;;;;;;11.80;9.30;;;;;;;20.64;100.00;98181.72;134299;1288;22554;-80
2023/08/05 11:52:16;;;;;;;12.70;9.80;;;;;;;20.64;100.00;98180.64;134330;1288;24892;-81
2023/08/05 11:55:18;;;;;;;13.40;9.40;;;;;;;20.62;100.00;98179.65;134320;1288;22529;-81
2023/08/05 11:58:23;;;;;;;12.10;6.80;;;;;;;20.54;100.00;98174.31;134143;1285;256109;-80
2023/08/05 12:01:25;;;;;;;8.70;7.70;;;;;;;20.46;100.00;98177.48;134523;1285;22568;-80
2023/08/05 12:04:28;;;;;;;10.40;6.70;;;;;;;20.45;100.00;98172.74;134507;1285;24765;-81
2023/08/05 12:07:30;;;;;;;8.50;7.60;;;;;;;20.45;100.00;98171.68;134553;1285;22569;-81
2023/08/05 12:10:32;;;;;;;12.20;10.70;;;;;;;20.46;100.00;98170.05;134507;1285;22559;-81
2023/08/05 12:13:35;;;;;;;9.80;8.20;;;;;;;20.59;100.00;98166.19;134515;1285;22550;-80
2023/08/05 12:16:37;;;;;;;11.10;7.00;;;;;;;20.88;100.00;98145.95;134367;1285;24185;-81
2023/08/05 12:19:40;;;;;;;7.30;6.70;;;;;;;21.21;100.00;98132.55;134407;1285;23646;-80
2023/08/05 12:22:42;;;;;;;9.10;8.20;;;;;;;21.40;100.00;98139.91;134389;1285;22554;-81
2023/08/05 12:25:45;;;;;;;8.50;7.70;;;;;;;21.34;100.00;98140.67;134459;1285;22602;-81
2023/08/05 12:28:47;;;;;;;13.30;8.60;;;;;;;21.50;100.00;98135.41;134906;1285;22563;-82
2023/08/05 12:31:50;;;;;;;14.70;10.80;;;;;;;21.72;100.00;98131.80;134827;1285;22547;-82
2023/08/05 12:34:52;;;;;;;10.00;7.50;;;;;;;21.89;100.00;98130.85;135461;1278;22945;-81
2023/08/05 12:37:54;;;;;;;23.50;17.50;;;;;;;21.86;100.00;98141.61;135427;1254;22543;-82
2023/08/05 12:40:57;;;;;;;19.10;15.60;;;;;;;21.75;100.00;98142.80;135374;1278;22549;-85
2023/08/05 12:44:00;;;;;;;12.80;11.20;;;;;;;21.72;100.00;98144.21;135383;1278;22548;-87
2023/08/05 12:47:02;;;;;;;11.10;9.10;;;;;;;21.72;100.00;98146.15;135367;1278;23226;-84
2023/08/05 12:50:04;;;;;;;8.60;7.80;;;;;;;21.85;100.00;98141.48;135331;1278;22541;-84
2023/08/05 12:53:07;;;;;;;16.30;12.60;;;;;;;21.91;100.00;98141.58;135428;1278;23019;-82
2023/08/05 12:56:10;;;;;;;24.70;14.50;;;;;;;21.79;100.00;98139.98;135454;1278;22552;-83
2023/08/05 12:59:12;;;;;;;36.50;19.70;;;;;;;21.69;100.00;98136.91;135372;1278;22553;-83
2023/08/05 13:02:16;;;;;;;21.30;14.10;;;;;;;21.56;100.00;98132.45;135381;1278;22627;-83
2023/08/05 13:05:31;;;;;;;10.20;9.10;;;;;;;21.48;100.00;98126.44;135290;1278;25394;-82
2023/08/05 13:08:33;;;;;;;9.50;8.30;;;;;;;21.42;100.00;98124.08;135274;1278;22542;-82
2023/08/05 13:11:36;;;;;;;12.80;9.50;;;;;;;21.33;100.00;98112.78;135302;1278;22646;-81
2023/08/05 13:14:38;;;;;;;15.90;12.30;;;;;;;21.09;100.00;98111.10;135314;1278;22667;-82
2023/08/05 13:17:40;;;;;;;16.00;11.70;;;;;;;21.01;100.00;98104.92;135305;1278;22550;-82
2023/08/05 13:20:43;;;;;;;27.20;17.80;;;;;;;21.05;100.00;98099.81;135279;1278;22564;-85
2023/08/05 13:23:45;;;;;;;22.80;14.80;;;;;;;21.06;100.00;98099.41;135313;1278;22613;-84
2023/08/05 13:26:48;;;;;;;29.50;15.60;;;;;;;21.05;100.00;98103.51;135311;1278;22556;-84
2023/08/05 13:29:50;;;;;;;15.10;11.90;;;;;;;21.20;100.00;98114.55;135272;1278;22599;-83
2023/08/05 13:32:53;;;;;;;13.10;10.90;;;;;;;21.34;100.00;98110.61;135246;1278;22545;-82
2023/08/05 13:35:55;;;;;;;11.30;10.10;;;;;;;21.37;100.00;98105.88;135289;1278;22546;-83
2023/08/05 13:38:58;;;;;;;9.90;8.40;;;;;;;21.26;100.00;98104.91;135244;1275;25229;-82
2023/08/05 13:42:00;;;;;;;9.30;8.40;;;;;;;20.96;100.00;98106.00;135261;1278;22544;-82
2023/08/05 13:45:02;;;;;;;26.20;10.20;;;;;;;20.63;100.00;98109.25;135324;1275;25760;-82
2023/08/05 13:48:05;;;;;;;14.20;9.70;;;;;;;20.38;100.00;98112.38;135335;1278;22542;-85
2023/08/05 13:51:07;;;;;;;10.40;9.20;;;;;;;20.20;100.00;98105.98;135358;1278;22575;-83
2023/08/05 13:54:11;;;;;;;10.70;9.30;;;;;;;20.15;100.00;98103.52;135379;1278;22545;-84
2023/08/05 13:57:13;;;;;;;11.30;9.30;;;;;;;20.17;100.00;98095.32;135197;1278;22537;-85
2023/08/05 14:00:16;;;;;;;11.10;9.80;;;;;;;20.18;100.00;98098.30;135366;1278;22541;-82
2023/08/05 14:03:21;;;;;;;16.30;11.80;;;;;;;20.22;100.00;98099.71;135364;1278;22544;-84
2023/08/05 14:06:25;;;;;;;12.20;9.70;;;;;;;20.27;100.00;98104.30;135384;1278;22568;-82
2023/08/05 14:09:28;;;;;;;11.90;10.70;;;;;;;20.28;100.00;98112.58;135350;1278;22547;-83
2023/08/05 14:12:30;;;;;;;13.60;11.10;;;;;;;20.11;100.00;98105.62;135393;1278;22548;-83
2023/08/05 14:15:33;;;;;;;18.20;11.30;;;;;;;19.96;100.00;98106.55;135350;1278;23195;-83
2023/08/05 14:18:35;;;;;;;13.60;10.40;;;;;;;19.87;100.00;98106.15;135335;1278;25905;-82
2023/08/05 14:21:38;;;;;;;11.80;10.50;;;;;;;19.80;100.00;98102.70;135296;1278;22542;-83
2023/08/05 14:24:40;;;;;;;12.20;10.60;;;;;;;19.79;100.00;98093.39;135339;1278;22531;-83
2023/08/05 14:27:43;;;;;;;11.20;9.50;;;;;;;19.83;100.00;98087.59;135368;1275;24884;-83
2023/08/05 14:30:45;;;;;;;12.00;9.90;;;;;;;19.92;100.00;98077.19;135383;1278;22567;-84
2023/08/05 14:33:48;;;;;;;11.60;10.40;;;;;;;20.08;100.00;98076.94;135333;1278;22540;-85
2023/08/05 14:36:50;;;;;;;11.60;9.00;;;;;;;20.16;100.00;98077.35;135352;1278;22553;-85
2023/08/05 14:39:53;;;;;;;11.00;9.60;;;;;;;20.17;100.00;98075.89;135352;1278;22529;-86
2023/08/05 14:42:55;;;;;;;10.00;8.90;;;;;;;20.20;100.00;98076.48;135394;1278;22536;-84
2023/08/05 14:45:59;;;;;;;11.20;9.20;;;;;;;20.25;100.00;98077.68;135401;1278;22553;-86
2023/08/05 14:49:02;;;;;;;10.10;9.20;;;;;;;20.33;100.00;98083.20;135389;1278;22561;-84
2023/08/05 14:52:04;;;;;;;10.60;9.60;;;;;;;20.45;100.00;98074.13;135359;1278;23078;-83
2023/08/05 14:55:07;;;;;;;10.60;9.60;;;;;;;20.55;100.00;98067.54;135377;1278;22630;-84
2023/08/05 14:58:09;;;;;;;11.40;10.20;;;;;;;20.64;100.00;98057.42;135373;1278;25316;-82
2023/08/05 15:01:18;;;;;;;10.20;9.20;;;;;;;20.70;100.00;98050.48;135401;1278;22523;-82
2023/08/05 15:04:20;;;;;;;9.80;8.80;;;;;;;20.77;100.00;98051.27;135380;1278;22587;-84
2023/08/05 15:07:23;;;;;;;12.70;9.60;;;;;;;20.89;100.00;98057.50;135405;1278;22537;-82
2023/08/05 15:10:25;;;;;;;10.50;8.60;;;;;;;20.94;100.00;98054.77;135458;1278;22543;-80
2023/08/05 15:13:28;;;;;;;9.20;8.10;;;;;;;20.96;100.00;98053.45;135326;1278;24880;-82
2023/08/05 15:16:30;;;;;;;9.60;8.70;;;;;;;20.97;100.00;98056.79;135362;1278;22544;-84
2023/08/05 15:19:34;;;;;;;9.10;8.20;;;;;;;20.98;100.00;98059.91;135339;1278;22550;-83
2023/08/05 15:22:36;;;;;;;10.00;8.60;;;;;;;20.96;100.00;98060.70;135385;1278;22548;-83
2023/08/05 15:25:39;;;;;;;9.80;9.00;;;;;;;20.87;100.00;98062.52;135361;1270;22536;-83
2023/08/05 15:28:41;;;;;;;10.30;9.40;;;;;;;20.81;100.00;98054.45;135360;1278;25215;-83
2023/08/05 15:31:43;;;;;;;10.80;9.80;;;;;;;20.73;100.00;98057.58;135353;1278;22540;-84
2023/08/05 15:34:46;;;;;;;10.10;9.10;;;;;;;20.62;100.00;98060.89;135316;1278;25930;-82
2023/08/05 15:37:48;;;;;;;13.10;9.90;;;;;;;20.50;100.00;98055.17;135343;1278;24356;-83
2023/08/05 15:40:51;;;;;;;10.90;9.80;;;;;;;20.35;100.00;98046.92;135610;1278;22549;-83
2023/08/05 15:43:53;;;;;;;11.40;10.30;;;;;;;20.24;100.00;98040.63;136056;1278;22567;-80
2023/08/05 15:46:55;;;;;;;11.70;10.50;;;;;;;20.16;100.00;98041.32;135883;1280;23053;-81
2023/08/05 15:49:58;;;;;;;12.50;11.30;;;;;;;20.07;100.00;98033.55;135889;1280;22538;-82
2023/08/05 15:53:00;;;;;;;13.50;12.00;;;;;;;19.98;100.00;98033.71;135870;1280;22276;-81
2023/08/05 15:56:09;;;;;;;;;;;;;;;19.88;100.00;98036.55;135945;1280;22572;-81
2023/08/05 15:59:12;;;;;;;12.80;11.70;;;;;;;19.80;100.00;98026.46;135941;1280;22551;-80
2023/08/05 16:02:15;;;;;;;14.40;12.90;;;;;;;19.71;100.00;98018.13;135452;1280;22557;-82
2023/08/05 16:05:17;;;;;;;14.10;12.60;;;;;;;19.63;100.00;98024.06;135496;1280;22541;-82
2023/08/05 16:08:20;;;;;;;20.10;14.30;;;;;;;19.60;100.00;98028.45;135495;1280;22554;-81
2023/08/05 16:11:22;;;;;;;14.10;12.60;;;;;;;19.58;100.00;98027.63;135334;1280;22547;-83
2023/08/05 16:14:25;;;;;;;21.30;15.50;;;;;;;19.57;100.00;98031.20;135056;1279;22557;-82
2023/08/05 16:17:27;;;;;;;16.30;14.60;;;;;;;19.57;100.00;98030.67;135115;1280;22592;-83
2023/08/05 16:20:30;;;;;;;17.00;14.40;;;;;;;19.57;100.00;98022.00;135116;1280;24209;-83
2023/08/05 16:23:32;;;;;;;22.40;13.90;;;;;;;19.57;100.00;98017.42;135126;1280;25288;-83
2023/08/05 16:26:35;;;;;;;17.90;14.20;;;;;;;19.58;100.00;98020.39;135357;1278;24902;-83
2023/08/05 16:29:37;;;;;;;16.30;13.70;;;;;;;19.58;100.00;98021.27;135379;1278;22543;-83
2023/08/05 16:32:41;;;;;;;15.40;13.80;;;;;;;19.57;100.00;98016.21;135366;1278;24199;-81
2023/08/05 16:35:43;;;;;;;14.40;13.00;;;;;;;19.50;100.00;98024.55;135368;1278;22533;-82
2023/08/05 16:38:46;;;;;;;15.00;13.50;;;;;;;19.44;100.00;98023.89;135319;1278;22555;-85
2023/08/05 16:41:48;;;;;;;18.10;14.00;;;;;;;19.39;100.00;98025.82;135221;1278;22646;-82
2023/08/05 16:44:51;;;;;;;15.50;13.90;;;;;;;19.33;100.00;98024.80;135333;1276;22539;-82
2023/08/05 16:47:53;;;;;;;16.00;14.30;;;;;;;19.28;100.00;98032.05;135471;1276;22550;-82
2023/08/05 16:50:56;;;;;;;16.90;14.80;;;;;;;19.23;100.00;98028.89;135494;1276;25400;-83
2023/08/05 16:54:01;;;;;;;16.70;14.00;;;;;;;19.20;100.00;98027.07;135490;1276;23770;-83
2023/08/05 16:57:03;;;;;;;16.20;14.10;;;;;;;19.20;100.00;98019.13;135451;1276;22492;-83
2023/08/05 17:00:06;;;;;;;15.70;14.20;;;;;;;19.20;100.00;98021.94;135486;1276;22549;-81
2023/08/05 17:03:08;;;;;;;21.60;14.90;;;;;;;19.18;100.00;98013.71;135367;1276;22530;-81
2023/08/05 17:06:11;;;;;;;16.00;14.10;;;;;;;19.17;100.00;98004.59;135395;1276;22598;-81
2023/08/05 17:09:16;;;;;;;19.40;15.70;;;;;;;19.17;100.00;98004.77;135420;1276;22646;-81
2023/08/05 17:12:19;;;;;;;16.30;14.60;;;;;;;19.15;100.00;98000.25;135341;1276;22654;-81
2023/08/05 17:15:21;;;;;;;18.20;14.30;;;;;;;19.15;100.00;97992.50;135416;1276;22539;-81
2023/08/05 17:18:24;;;;;;;15.60;13.90;;;;;;;19.13;100.00;98005.27;135396;1276;22605;-82
2023/08/05 17:21:27;;;;;;;16.80;15.00;;;;;;;19.12;100.00;98006.73;135432;1276;22534;-80
2023/08/05 17:24:29;;;;;;;16.60;14.60;;;;;;;19.11;100.00;98001.64;135431;1276;22709;-81
2023/08/05 17:27:32;;;;;;;19.20;14.70;;;;;;;19.07;100.00;98000.32;135431;1276;22554;-83
2023/08/05 17:30:37;;;;;;;15.60;14.20;;;;;;;19.09;100.00;98000.28;135428;1276;22551;-84
2023/08/05 17:33:39;;;;;;;16.60;14.30;;;;;;;19.12;100.00;97992.77;135448;1276;22537;-83
2023/08/05 17:36:42;;;;;;;19.70;14.50;;;;;;;19.13;100.00;97984.83;135340;1275;23055;-83
2023/08/05 17:39:44;;;;;;;20.40;15.00;;;;;;;19.10;100.00;97982.98;135701;1276;23580;-83
2023/08/05 17:42:47;;;;;;;17.40;15.60;;;;;;;19.08;100.00;97988.85;135631;1276;24913;-83
2023/08/05 17:45:49;;;;;;;16.80;14.60;;;;;;;19.09;100.00;97993.60;135724;1277;22999;-81
2023/08/05 17:48:52;;;;;;;15.90;13.40;;;;;;;19.10;100.00;97984.71;135298;1276;22575;-81
2023/08/05 17:51:54;;;;;;;20.80;14.20;;;;;;;19.11;100.00;97976.59;135273;1276;22549;-81
2023/08/05 17:54:57;;;;;;;20.40;14.80;;;;;;;19.10;100.00;97973.45;135280;1276;22570;-80
2023/08/05 17:57:59;;;;;;;23.60;15.30;;;;;;;19.07;100.00;97972.11;135399;1274;22572;-81
2023/08/05 18:01:02;;;;;;;18.30;14.80;;;;;;;19.05;100.00;97967.95;135380;1273;22550;-82
2023/08/05 18:04:04;;;;;;;19.00;16.70;;;;;;;19.08;100.00;97965.55;135947;1273;22530;-84
2023/08/05 18:07:09;;;;;;;18.30;15.70;;;;;;;19.28;100.00;97969.80;135926;1274;22580;-86
2023/08/05 18:10:12;;;;;;;17.10;15.20;;;;;;;19.46;100.00;97966.09;135762;1273;24150;-83
2023/08/05 18:13:14;;;;;;;20.40;16.70;;;;;;;19.56;100.00;97965.59;135782;1273;25227;-85
2023/08/05 18:16:17;;;;;;;20.30;14.60;;;;;;;19.65;100.00;97956.75;135666;1273;23192;-85
2023/08/05 18:19:19;;;;;;;16.50;14.80;;;;;;;19.81;100.00;97953.15;135741;1274;22538;-85
2023/08/05 18:22:22;;;;;;;16.00;13.70;;;;;;;19.80;100.00;97964.84;135696;1273;22648;-85
2023/08/05 18:25:24;;;;;;;15.60;14.00;;;;;;;19.81;100.00;97967.96;135709;1273;22611;-85
2023/08/05 18:28:28;;;;;;;15.40;13.60;;;;;;;19.82;100.00;97973.77;135721;1273;21950;-85
2023/08/05 18:31:31;;;;;;;16.80;15.00;;;;;;;19.82;100.00;97970.39;135856;1273;22124;-87
2023/08/05 18:34:33;;;;;;;16.10;14.30;;;;;;;19.77;100.00;97968.14;135823;1274;22517;-86
2023/08/05 18:37:36;;;;;;;18.30;14.90;;;;;;;19.73;100.00;97957.36;135880;1273;22575;-85
2023/08/05 18:40:38;;;;;;;16.80;14.80;;;;;;;19.73;100.00;97955.21;135738;1273;25261;-85
2023/08/05 18:43:41;;;;;;;19.00;14.50;;;;;;;19.75;100.00;97951.08;135667;1273;22550;-85
2023/08/05 18:46:44;;;;;;;17.00;13.80;;;;;;;19.76;100.00;97951.75;135560;1273;22541;-84
2023/08/05 18:49:46;;;;;;;19.60;15.20;;;;;;;19.84;100.00;97942.95;135667;1273;22528;-85
2023/08/05 18:52:49;;;;;;;21.80;15.00;;;;;;;19.81;100.00;97937.10;135659;1273;22547;-85
2023/08/05 18:55:51;;;;;;;17.70;14.20;;;;;;;19.78;100.00;97938.44;135590;1274;22544;-85
2023/08/05 18:58:53;;;;;;;16.00;14.20;;;;;;;19.87;100.00;97945.48;135629;1274;24298;-85
2023/08/05 19:01:56;;;;;;;19.40;14.20;;;;;;;20.00;100.00;97950.98;135595;1273;22544;-84
2023/08/05 19:04:58;;;;;;;15.90;14.20;;;;;;;20.03;100.00;97938.52;135584;1273;22539;-84
2023/08/05 19:08:01;;;;;;;18.80;15.40;;;;;;;19.95;100.00;97925.40;135690;1273;22546;-84
2023/08/05 19:11:03;;;;;;;16.20;13.60;;;;;;;19.89;100.00;97928.09;135738;1273;22488;-85
2023/08/05 19:14:06;;;;;;;18.50;15.50;;;;;;;20.03;100.00;97921.56;135629;1274;22531;-85
2023/08/05 19:17:08;;;;;;;20.70;15.40;;;;;;;20.07;100.00;97920.36;135601;1273;25300;-84
2023/08/05 19:20:11;;;;;;;18.00;14.30;;;;;;;20.07;100.00;97921.77;135601;1273;22536;-84
2023/08/05 19:23:13;;;;;;;15.90;14.00;;;;;;;20.18;100.00;97912.11;135651;1274;22569;-83
2023/08/05 19:26:16;;;;;;;16.60;13.60;;;;;;;20.21;100.00;97907.60;135657;1274;22538;-85
2023/08/05 19:29:19;;;;;;;18.90;13.90;;;;;;;20.22;100.00;97902.25;135681;1270;22648;-85
2023/08/05 19:32:22;;;;;;;16.30;13.40;;;;;;;20.22;100.00;97898.70;135687;1266;22530;-85
2023/08/05 19:35:25;;;;;;;15.90;14.30;;;;;;;20.11;100.00;97894.77;135702;1270;22552;-85
2023/08/05 19:38:27;;;;;;;15.70;13.90;;;;;;;19.88;100.00;97886.66;135702;1274;25425;-85
2023/08/05 19:41:30;;;;;;;16.50;13.30;;;;;;;19.83;100.00;97885.64;135694;1269;22530;-86
2023/08/05 19:44:32;;;;;;;18.80;14.00;;;;;;;19.87;100.00;97879.11;135709;1274;22936;-85
2023/08/05 19:47:39;;;;;;;20.60;14.20;;;;;;;19.91;100.00;97884.77;135694;1274;22541;-85
2023/08/05 19:50:43;;;;;;;19.10;14.60;;;;;;;19.89;100.00;97880.95;135698;1273;22530;-88
2023/08/05 19:53:46;;;;;;;16.30;13.40;;;;;;;19.88;100.00;97887.91;135729;1273;22534;-87
2023/08/05 19:56:48;;;;;;;17.80;13.80;;;;;;;19.96;100.00;97889.02;135699;1274;22551;-86
2023/08/05 19:59:51;;;;;;;15.80;14.10;;;;;;;20.00;100.00;97893.97;135697;1270;22534;-86
2023/08/05 20:02:53;;;;;;;15.60;14.20;;;;;;;19.99;100.00;97887.83;135675;1273;23012;-84
2023/08/05 20:05:56;;;;;;;18.80;13.30;;;;;;;20.02;100.00;97882.92;135690;1273;22546;-86
2023/08/05 20:08:58;;;;;;;16.10;13.80;;;;;;;20.07;100.00;97880.42;135694;1273;22550;-84
2023/08/05 20:12:01;;;;;;;14.60;13.00;;;;;;;20.11;100.00;97882.20;135768;1273;22497;-84
2023/08/05 20:15:03;;;;;;;19.00;14.00;;;;;;;20.21;100.00;97882.50;135804;1273;22573;-84
2023/08/05 20:18:06;;;;;;;14.30;12.70;;;;;;;20.31;100.00;97887.69;135755;1273;22552;-84
2023/08/05 20:21:09;;;;;;;14.40;12.90;;;;;;;20.39;100.00;97879.64;135686;1273;22475;-91
2023/08/05 20:24:36;;;;;;;;;;;;;;;;;;;;;
2023/08/05 20:27:40;;;;;;;17.70;13.20;;;;;;;20.32;100.00;97894.54;135720;1273;22537;-87
2023/08/05 20:30:43;;;;;;;14.80;13.40;;;;;;;20.18;100.00;97895.00;135811;1273;26207;-84
2023/08/05 20:33:45;;;;;;;17.80;13.20;;;;;;;20.11;100.00;97896.17;135865;1273;22537;-86
2023/08/05 20:36:48;;;;;;;19.70;13.30;;;;;;;20.17;100.00;97892.55;135803;1273;22556;-86
2023/08/05 20:41:57;;;;;;;20.50;15.70;;;;;;;20.28;100.00;97902.58;132822;1312;557925;-84
2023/08/05 20:44:58;;;;;;;15.90;12.80;;;;;;;20.20;100.00;97947.55;135818;1287;22574;-84
2023/08/05 20:47:59;;;;;;;32.00;15.80;;;;;;;20.19;100.00;97998.83;136020;1287;22562;-82
2023/08/05 20:51:02;;;;;;;53.80;17.20;;;;;;;19.99;100.00;97908.48;136222;1287;22320;-83
2023/08/05 20:54:04;;;;;;;18.40;13.70;;;;;;;19.40;100.00;97820.44;135833;1284;140901;-88
2023/08/05 20:57:05;;;;;;;20.50;14.10;;;;;;;18.96;100.00;97838.14;135929;1284;22541;-85
2023/08/05 21:00:06;;;;;;;15.90;14.20;;;;;;;18.75;100.00;97806.34;136477;1284;22553;-85
2023/08/05 21:03:07;;;;;;;17.40;13.20;;;;;;;18.61;100.00;97760.52;135933;1284;22249;-86
2023/08/05 21:06:08;;;;;;;14.40;12.90;;;;;;;18.54;100.00;97753.36;136811;1277;22169;-86
2023/08/05 21:09:09;;;;;;;13.40;12.00;;;;;;;18.50;100.00;97733.42;137200;1277;22690;-84
2023/08/05 21:12:10;;;;;;;14.40;13.00;;;;;;;18.50;100.00;97726.41;136733;1277;22286;-85
2023/08/05 21:15:11;;;;;;;15.70;12.40;;;;;;;18.47;100.00;97719.81;136781;1277;22415;-84
2023/08/05 21:18:12;;;;;;;14.30;13.00;;;;;;;18.47;100.00;97725.63;137038;1277;22531;-85
2023/08/05 21:21:14;;;;;;;16.30;14.40;;;;;;;18.46;100.00;97706.64;136806;1277;22383;-85
2023/08/05 21:24:15;;;;;;;16.00;14.40;;;;;;;18.44;100.00;97703.02;136721;1276;22042;-85
2023/08/05 21:27:16;;;;;;;16.30;14.90;;;;;;;18.43;100.00;97729.30;136822;1277;22554;-86
2023/08/05 21:30:17;;;;;;;18.70;15.90;;;;;;;18.43;100.00;97738.98;137131;1273;22146;-85
2023/08/05 21:33:18;;;;;;;16.60;14.90;;;;;;;18.44;100.00;97730.67;136709;1277;22427;-83
2023/08/05 21:36:19;;;;;;;15.60;14.00;;;;;;;18.43;100.00;97755.20;136503;1277;22543;-84
2023/08/05 21:39:20;;;;;;;15.50;14.10;;;;;;;18.43;100.00;97777.19;137220;1277;22166;-84
2023/08/05 21:42:21;;;;;;;17.20;15.50;;;;;;;18.45;100.00;97760.23;136575;1277;22133;-85
2023/08/05 21:45:23;;;;;;;16.00;14.60;;;;;;;18.46;100.00;97759.30;136675;1277;22451;-85
2023/08/05 21:48:24;;;;;;;16.70;14.90;;;;;;;18.47;100.00;97741.30;137069;1277;22511;-84
2023/08/05 21:51:25;;;;;;;15.40;14.00;;;;;;;18.46;100.00;97747.30;136590;1277;22478;-85
2023/08/05 21:54:26;;;;;;;14.90;13.40;;;;;;;18.47;100.00;97774.24;136561;1277;22278;-84
2023/08/05 21:57:27;;;;;;;16.60;14.80;;;;;;;18.47;100.00;97781.81;137061;1270;22607;-85
2023/08/05 22:00:28;;;;;;;15.90;14.00;;;;;;;18.47;100.00;97795.73;136885;1277;22318;-85
2023/08/05 22:03:29;;;;;;;14.50;13.20;;;;;;;18.49;100.00;97810.11;136502;1277;22190;-84
2023/08/05 22:06:30;;;;;;;13.20;12.00;;;;;;;18.51;100.00;97798.76;136651;1277;22581;-83
2023/08/05 22:09:34;;;;;;;13.40;12.20;;;;;;;18.52;100.00;97770.35;137064;1277;22318;-83
2023/08/05 22:12:35;;;;;;;;;;;;;;;18.53;100.00;97771.73;136652;1277;22520;-84
2023/08/05 22:15:36;;;;;;;13.00;11.70;;;;;;;18.54;100.00;97777.14;136620;1277;22284;-84
2023/08/05 22:18:37;;;;;;;13.00;11.80;;;;;;;18.58;100.00;97770.67;137141;1277;22741;-86
2023/08/05 22:21:38;;;;;;;13.40;12.10;;;;;;;18.60;100.00;97765.14;136570;1277;23184;-85
2023/08/05 22:24:41;;;;;;;13.60;12.30;;;;;;;18.62;100.00;97748.67;136667;1277;22750;-85
2023/08/05 22:27:42;;;;;;;14.30;13.00;;;;;;;18.63;100.00;97719.23;137077;1271;22543;-86
2023/08/05 22:30:43;;;;;;;15.30;13.80;;;;;;;18.60;100.00;97679.34;136686;1277;22181;-82
2023/08/05 22:33:44;;;;;;;16.00;14.40;;;;;;;18.56;100.00;97627.15;136642;1277;22374;-83
2023/08/05 22:36:45;;;;;;;16.50;15.00;;;;;;;18.53;100.00;97582.54;136760;1277;24199;-89
2023/08/05 22:39:46;;;;;;;17.10;15.30;;;;;;;18.51;100.00;97579.98;136988;1277;22161;-86
2023/08/05 22:42:47;;;;;;;18.10;16.30;;;;;;;18.50;100.00;97584.96;136702;1277;22205;-86
2023/08/05 22:45:48;;;;;;;17.70;15.40;;;;;;;18.48;100.00;97594.19;136633;1277;24199;-84
2023/08/05 22:48:49;;;;;;;17.90;16.20;;;;;;;18.48;100.00;97612.13;137176;1277;22652;-86
2023/08/05 22:51:50;;;;;;;22.20;17.20;;;;;;;18.50;100.00;97615.08;136865;1277;22251;-87
2023/08/05 22:54:52;;;;;;;18.00;16.30;;;;;;;18.51;100.00;97616.80;136951;1277;22715;-85
2023/08/05 22:57:53;;;;;;;17.70;16.00;;;;;;;18.53;100.00;97627.98;137166;1277;22323;-86
2023/08/05 23:00:54;;;;;;;18.70;16.80;;;;;;;18.55;100.00;97632.66;136590;1277;22699;-85
2023/08/05 23:03:55;;;;;;;16.80;15.30;;;;;;;18.57;100.00;97625.19;136716;1277;22854;-86
2023/08/05 23:06:56;;;;;;;16.90;15.20;;;;;;;18.58;100.00;97627.95;137026;1277;22383;-84
2023/08/05 23:09:57;;;;;;;17.70;14.80;;;;;;;18.59;100.00;97624.75;136855;1265;22438;-84
2023/08/05 23:12:58;;;;;;;15.60;13.90;;;;;;;18.60;100.00;97627.37;136709;1277;22820;-83
2023/08/05 23:15:59;;;;;;;15.80;14.00;;;;;;;18.62;100.00;97643.14;136828;1277;25259;-85
2023/08/05 23:19:00;;;;;;;14.50;13.10;;;;;;;18.65;100.00;97652.53;136998;1277;22279;-84
2023/08/05 23:22:01;;;;;;;15.20;13.60;;;;;;;18.70;100.00;97660.30;136702;1277;22179;-86
2023/08/05 23:25:02;;;;;;;13.00;11.90;;;;;;;18.72;100.00;97647.48;136673;1277;22558;-85
2023/08/05 23:28:03;;;;;;;15.00;13.50;;;;;;;18.70;100.00;97642.83;137129;1277;22217;-85
2023/08/05 23:31:07;;;;;;;12.90;11.60;;;;;;;18.71;100.00;97634.35;136644;1277;22209;-85
2023/08/05 23:34:08;;;;;;;17.30;11.80;;;;;;;18.71;100.00;97614.43;136576;1277;22505;-84
2023/08/05 23:37:09;;;;;;;12.30;10.80;;;;;;;18.68;100.00;97624.59;137186;1277;22217;-86
2023/08/05 23:40:10;;;;;;;12.90;11.70;;;;;;;18.69;100.00;97688.85;136623;1277;22178;-85
2023/08/05 23:43:11;;;;;;;13.40;12.00;;;;;;;18.72;100.00;97680.81;136718;1277;22205;-85
2023/08/05 23:46:12;;;;;;;13.00;11.50;;;;;;;18.73;100.00;97632.15;136829;1277;22552;-85
2023/08/05 23:49:13;;;;;;;12.80;11.70;;;;;;;18.69;100.00;97626.66;136896;1277;22683;-84
2023/08/05 23:52:15;;;;;;;15.20;13.70;;;;;;;18.68;100.00;97632.51;136723;1277;22606;-85
2023/08/05 23:55:16;;;;;;;12.40;11.10;;;;;;;18.70;100.00;97639.65;136747;1277;22577;-84
2023/08/05 23:58:17;;;;;;;13.60;12.20;;;;;;;18.73;100.00;97647.84;136954;1277;23136;-84
